sensor_id;sensor_type;location;lat;lon;timestamp;temperature;humidity
20141;DHT22;10231;47.702;9.826;2023-01-19T00:00:25;0.10;99.90
20141;DHT22;10231;47.702;9.826;2023-01-19T00:02:51;0.20;99.90
20141;DHT22;10231;47.702;9.826;2023-01-19T00:05:19;0.10;99.90
20141;DHT22;10231;47.702;9.826;2023-01-19T00:07:45;0.10;99.90
20141;DHT22;10231;47.702;9.826;2023-01-19T00:10:11;0.10;99.90
20141;DHT22;10231;47.702;9.826;2023-01-19T00:12:36;0.10;99.90
20141;DHT22;10231;47.702;9.826;2023-01-19T00:15:03;0.00;99.90
20141;DHT22;10231;47.702;9.826;2023-01-19T00:17:29;0.00;99.90
20141;DHT22;10231;47.702;9.826;2023-01-19T00:19:55;0.00;99.90
20141;DHT22;10231;47.702;9.826;2023-01-19T00:22:20;0.00;99.90
20141;DHT22;10231;47.702;9.826;2023-01-19T00:24:46;0.00;99.90
20141;DHT22;10231;47.702;9.826;2023-01-19T00:27:11;-0.10;99.90
20141;DHT22;10231;47.702;9.826;2023-01-19T00:29:37;-0.10;99.90
20141;DHT22;10231;47.702;9.826;2023-01-19T00:32:04;-0.10;99.90
20141;DHT22;10231;47.702;9.826;2023-01-19T00:34:30;-0.10;99.90
20141;DHT22;10231;47.702;9.826;2023-01-19T00:37:05;-0.10;99.90
20141;DHT22;10231;47.702;9.826;2023-01-19T00:39:31;0.00;99.90
20141;DHT22;10231;47.702;9.826;2023-01-19T00:41:56;0.00;99.90
20141;DHT22;10231;47.702;9.826;2023-01-19T00:44:42;0.10;99.90
20141;DHT22;10231;47.702;9.826;2023-01-19T00:47:08;0.10;99.90
20141;DHT22;10231;47.702;9.826;2023-01-19T00:49:34;0.10;99.90
20141;DHT22;10231;47.702;9.826;2023-01-19T00:51:59;0.00;99.90
20141;DHT22;10231;47.702;9.826;2023-01-19T00:54:25;-0.10;99.90
20141;DHT22;10231;47.702;9.826;2023-01-19T00:56:50;0.00;99.90
20141;DHT22;10231;47.702;9.826;2023-01-19T00:59:16;0.00;99.90
20141;DHT22;10231;47.702;9.826;2023-01-19T01:01:41;0.10;99.90
20141;DHT22;10231;47.702;9.826;2023-01-19T01:04:07;0.00;99.90
20141;DHT22;10231;47.702;9.826;2023-01-19T01:06:32;0.00;99.90
20141;DHT22;10231;47.702;9.826;2023-01-19T01:08:58;0.10;99.90
20141;DHT22;10231;47.702;9.826;2023-01-19T01:11:23;0.00;99.90
20141;DHT22;10231;47.702;9.826;2023-01-19T01:13:49;0.00;99.90
20141;DHT22;10231;47.702;9.826;2023-01-19T01:16:15;-0.10;99.90
20141;DHT22;10231;47.702;9.826;2023-01-19T01:18:41;-0.20;99.90
20141;DHT22;10231;47.702;9.826;2023-01-19T01:21:08;-0.20;99.90
20141;DHT22;10231;47.702;9.826;2023-01-19T01:23:34;-0.20;99.90
20141;DHT22;10231;47.702;9.826;2023-01-19T01:25:59;-0.20;99.90
20141;DHT22;10231;47.702;9.826;2023-01-19T01:28:25;-0.20;99.90
20141;DHT22;10231;47.702;9.826;2023-01-19T01:30:54;-0.20;99.90
20141;DHT22;10231;47.702;9.826;2023-01-19T01:33:20;-0.30;99.90
20141;DHT22;10231;47.702;9.826;2023-01-19T01:35:47;-0.30;99.90
20141;DHT22;10231;47.702;9.826;2023-01-19T01:38:14;-0.40;99.90
20141;DHT22;10231;47.702;9.826;2023-01-19T01:40:40;-0.40;99.90
20141;DHT22;10231;47.702;9.826;2023-01-19T01:43:14;-0.40;99.90
20141;DHT22;10231;47.702;9.826;2023-01-19T01:45:40;-0.40;99.90
20141;DHT22;10231;47.702;9.826;2023-01-19T01:48:12;-0.50;99.90
20141;DHT22;10231;47.702;9.826;2023-01-19T01:50:43;-0.60;99.90
20141;DHT22;10231;47.702;9.826;2023-01-19T01:53:33;-0.60;99.90
20141;DHT22;10231;47.702;9.826;2023-01-19T01:56:02;-0.60;99.90
20141;DHT22;10231;47.702;9.826;2023-01-19T01:58:31;-0.60;99.90
20141;DHT22;10231;47.702;9.826;2023-01-19T02:00:57;-0.60;99.90
20141;DHT22;10231;47.702;9.826;2023-01-19T02:03:41;-0.60;99.90
20141;DHT22;10231;47.702;9.826;2023-01-19T02:06:08;-0.50;99.90
20141;DHT22;10231;47.702;9.826;2023-01-19T02:08:49;-0.60;99.90
20141;DHT22;10231;47.702;9.826;2023-01-19T02:11:35;-0.60;99.90
20141;DHT22;10231;47.702;9.826;2023-01-19T02:14:20;-0.60;99.90
20141;DHT22;10231;47.702;9.826;2023-01-19T02:16:46;-0.70;99.90
20141;DHT22;10231;47.702;9.826;2023-01-19T02:19:20;-0.80;99.90
20141;DHT22;10231;47.702;9.826;2023-01-19T02:21:54;-0.90;99.90
20141;DHT22;10231;47.702;9.826;2023-01-19T02:24:22;-1.00;99.90
20141;DHT22;10231;47.702;9.826;2023-01-19T02:26:49;-1.10;99.90
20141;DHT22;10231;47.702;9.826;2023-01-19T02:29:17;-1.00;99.90
20141;DHT22;10231;47.702;9.826;2023-01-19T02:31:44;-1.00;99.90
20141;DHT22;10231;47.702;9.826;2023-01-19T02:34:11;-1.00;99.90
20141;DHT22;10231;47.702;9.826;2023-01-19T02:36:56;-1.10;99.90
20141;DHT22;10231;47.702;9.826;2023-01-19T02:39:30;-1.10;99.90
20141;DHT22;10231;47.702;9.826;2023-01-19T02:42:04;-1.20;99.90
20141;DHT22;10231;47.702;9.826;2023-01-19T02:44:32;-1.30;99.90
20141;DHT22;10231;47.702;9.826;2023-01-19T02:46:59;-1.30;99.90
20141;DHT22;10231;47.702;9.826;2023-01-19T02:49:27;-1.30;99.90
20141;DHT22;10231;47.702;9.826;2023-01-19T02:51:53;-1.30;99.90
20141;DHT22;10231;47.702;9.826;2023-01-19T02:59:52;-1.40;99.90
20141;DHT22;10231;47.702;9.826;2023-01-19T03:10:46;-1.40;99.90
20141;DHT22;10231;47.702;9.826;2023-01-19T03:13:18;-1.50;99.90
20141;DHT22;10231;47.702;9.826;2023-01-19T03:15:48;-1.50;99.90
20141;DHT22;10231;47.702;9.826;2023-01-19T03:18:18;-1.50;99.90
20141;DHT22;10231;47.702;9.826;2023-01-19T03:20:45;-1.40;99.90
20141;DHT22;10231;47.702;9.826;2023-01-19T03:23:12;-1.40;99.90
20141;DHT22;10231;47.702;9.826;2023-01-19T03:25:42;-1.40;99.90
20141;DHT22;10231;47.702;9.826;2023-01-19T03:28:10;-1.50;99.90
20141;DHT22;10231;47.702;9.826;2023-01-19T03:30:41;-1.40;99.90
20141;DHT22;10231;47.702;9.826;2023-01-19T03:33:14;-1.30;99.90
20141;DHT22;10231;47.702;9.826;2023-01-19T03:35:46;-1.40;99.90
20141;DHT22;10231;47.702;9.826;2023-01-19T03:38:15;-1.40;99.90
20141;DHT22;10231;47.702;9.826;2023-01-19T03:40:44;-1.40;99.90
20141;DHT22;10231;47.702;9.826;2023-01-19T03:43:10;-1.20;99.90
20141;DHT22;10231;47.702;9.826;2023-01-19T03:45:37;-1.20;99.90
20141;DHT22;10231;47.702;9.826;2023-01-19T03:48:04;-1.10;99.90
20141;DHT22;10231;47.702;9.826;2023-01-19T03:50:31;-1.10;99.90
20141;DHT22;10231;47.702;9.826;2023-01-19T03:53:09;-1.20;99.90
20141;DHT22;10231;47.702;9.826;2023-01-19T03:55:37;-1.10;99.90
20141;DHT22;10231;47.702;9.826;2023-01-19T03:58:04;-1.10;99.90
20141;DHT22;10231;47.702;9.826;2023-01-19T04:00:29;-1.10;99.90
20141;DHT22;10231;47.702;9.826;2023-01-19T04:02:55;-1.00;99.90
20141;DHT22;10231;47.702;9.826;2023-01-19T04:05:21;-1.00;99.90
20141;DHT22;10231;47.702;9.826;2023-01-19T04:07:48;-0.90;99.90
20141;DHT22;10231;47.702;9.826;2023-01-19T04:10:17;-0.90;99.90
20141;DHT22;10231;47.702;9.826;2023-01-19T04:12:43;-0.90;99.90
20141;DHT22;10231;47.702;9.826;2023-01-19T04:15:09;-0.90;99.90
20141;DHT22;10231;47.702;9.826;2023-01-19T04:17:34;-1.00;99.90
20141;DHT22;10231;47.702;9.826;2023-01-19T04:20:00;-1.00;99.90
20141;DHT22;10231;47.702;9.826;2023-01-19T04:22:26;-1.10;99.90
20141;DHT22;10231;47.702;9.826;2023-01-19T04:24:51;-1.00;99.90
20141;DHT22;10231;47.702;9.826;2023-01-19T04:27:17;-1.00;99.90
20141;DHT22;10231;47.702;9.826;2023-01-19T04:29:43;-1.00;99.90
20141;DHT22;10231;47.702;9.826;2023-01-19T04:32:09;-0.90;99.90
20141;DHT22;10231;47.702;9.826;2023-01-19T04:34:34;-1.00;99.90
20141;DHT22;10231;47.702;9.826;2023-01-19T04:37:00;-0.90;99.90
20141;DHT22;10231;47.702;9.826;2023-01-19T04:39:25;-0.90;99.90
20141;DHT22;10231;47.702;9.826;2023-01-19T04:41:52;-1.00;99.90
20141;DHT22;10231;47.702;9.826;2023-01-19T04:44:17;-0.90;99.90
20141;DHT22;10231;47.702;9.826;2023-01-19T04:46:43;-1.00;99.90
20141;DHT22;10231;47.702;9.826;2023-01-19T04:49:09;-0.90;99.90
20141;DHT22;10231;47.702;9.826;2023-01-19T04:51:35;-0.90;99.90
20141;DHT22;10231;47.702;9.826;2023-01-19T04:54:01;-0.80;99.90
20141;DHT22;10231;47.702;9.826;2023-01-19T04:56:27;-0.80;99.90
20141;DHT22;10231;47.702;9.826;2023-01-19T04:58:53;-0.90;99.90
20141;DHT22;10231;47.702;9.826;2023-01-19T05:01:18;-0.80;99.90
20141;DHT22;10231;47.702;9.826;2023-01-19T05:03:44;-0.80;99.90
20141;DHT22;10231;47.702;9.826;2023-01-19T05:06:09;-0.80;99.90
20141;DHT22;10231;47.702;9.826;2023-01-19T05:08:35;-0.80;99.90
20141;DHT22;10231;47.702;9.826;2023-01-19T05:11:00;-0.70;99.90
20141;DHT22;10231;47.702;9.826;2023-01-19T05:13:26;-0.70;99.90
20141;DHT22;10231;47.702;9.826;2023-01-19T05:15:52;-0.70;99.90
20141;DHT22;10231;47.702;9.826;2023-01-19T05:18:18;-0.70;99.90
20141;DHT22;10231;47.702;9.826;2023-01-19T05:20:43;-0.70;99.90
20141;DHT22;10231;47.702;9.826;2023-01-19T05:23:09;-0.70;99.90
20141;DHT22;10231;47.702;9.826;2023-01-19T05:25:34;-0.70;99.90
20141;DHT22;10231;47.702;9.826;2023-01-19T05:28:00;-0.70;99.90
20141;DHT22;10231;47.702;9.826;2023-01-19T05:30:27;-0.80;99.90
20141;DHT22;10231;47.702;9.826;2023-01-19T05:32:53;-0.80;99.90
20141;DHT22;10231;47.702;9.826;2023-01-19T05:35:18;-0.80;99.90
20141;DHT22;10231;47.702;9.826;2023-01-19T05:37:44;-0.90;99.90
20141;DHT22;10231;47.702;9.826;2023-01-19T05:40:10;-0.80;99.90
20141;DHT22;10231;47.702;9.826;2023-01-19T05:42:35;-0.90;99.90
20141;DHT22;10231;47.702;9.826;2023-01-19T05:45:01;-0.90;99.90
20141;DHT22;10231;47.702;9.826;2023-01-19T05:47:30;-0.90;99.90
20141;DHT22;10231;47.702;9.826;2023-01-19T05:49:56;-0.80;99.90
20141;DHT22;10231;47.702;9.826;2023-01-19T05:52:22;-0.80;99.90
20141;DHT22;10231;47.702;9.826;2023-01-19T05:54:49;-0.80;99.90
20141;DHT22;10231;47.702;9.826;2023-01-19T05:57:16;-0.80;99.90
20141;DHT22;10231;47.702;9.826;2023-01-19T05:59:41;-0.80;99.90
20141;DHT22;10231;47.702;9.826;2023-01-19T06:02:07;-0.80;99.90
20141;DHT22;10231;47.702;9.826;2023-01-19T06:04:33;-0.70;99.90
20141;DHT22;10231;47.702;9.826;2023-01-19T06:06:59;-0.70;99.90
20141;DHT22;10231;47.702;9.826;2023-01-19T06:09:25;-0.70;99.90
20141;DHT22;10231;47.702;9.826;2023-01-19T06:11:50;-0.70;99.90
20141;DHT22;10231;47.702;9.826;2023-01-19T06:14:18;-0.70;99.90
20141;DHT22;10231;47.702;9.826;2023-01-19T06:16:44;-0.80;99.90
20141;DHT22;10231;47.702;9.826;2023-01-19T06:19:09;-0.70;99.90
20141;DHT22;10231;47.702;9.826;2023-01-19T06:21:35;-0.80;99.90
20141;DHT22;10231;47.702;9.826;2023-01-19T06:24:00;-0.70;99.90
20141;DHT22;10231;47.702;9.826;2023-01-19T06:26:29;-0.80;99.90
20141;DHT22;10231;47.702;9.826;2023-01-19T06:28:54;-0.80;99.90
20141;DHT22;10231;47.702;9.826;2023-01-19T06:31:20;-0.80;99.90
20141;DHT22;10231;47.702;9.826;2023-01-19T06:33:48;-0.90;99.90
20141;DHT22;10231;47.702;9.826;2023-01-19T06:36:14;-0.90;99.90
20141;DHT22;10231;47.702;9.826;2023-01-19T06:38:39;-0.90;99.90
20141;DHT22;10231;47.702;9.826;2023-01-19T06:41:05;-0.90;99.90
20141;DHT22;10231;47.702;9.826;2023-01-19T06:43:31;-1.00;99.90
20141;DHT22;10231;47.702;9.826;2023-01-19T06:45:57;-1.00;99.90
20141;DHT22;10231;47.702;9.826;2023-01-19T06:48:24;-1.00;99.90
20141;DHT22;10231;47.702;9.826;2023-01-19T06:50:50;-1.00;99.90
20141;DHT22;10231;47.702;9.826;2023-01-19T06:53:16;-1.00;99.90
20141;DHT22;10231;47.702;9.826;2023-01-19T06:55:44;-1.00;99.90
20141;DHT22;10231;47.702;9.826;2023-01-19T06:58:10;-1.00;99.90
20141;DHT22;10231;47.702;9.826;2023-01-19T07:00:36;-0.80;99.90
20141;DHT22;10231;47.702;9.826;2023-01-19T07:03:04;-0.80;99.90
20141;DHT22;10231;47.702;9.826;2023-01-19T07:05:30;-0.90;99.90
20141;DHT22;10231;47.702;9.826;2023-01-19T07:07:56;-0.90;99.90
20141;DHT22;10231;47.702;9.826;2023-01-19T07:10:23;-0.80;99.90
20141;DHT22;10231;47.702;9.826;2023-01-19T07:12:49;-0.80;99.90
20141;DHT22;10231;47.702;9.826;2023-01-19T07:15:16;-0.80;99.90
20141;DHT22;10231;47.702;9.826;2023-01-19T07:17:44;-0.80;99.90
20141;DHT22;10231;47.702;9.826;2023-01-19T07:20:10;-0.80;99.90
20141;DHT22;10231;47.702;9.826;2023-01-19T07:22:39;-0.80;99.90
20141;DHT22;10231;47.702;9.826;2023-01-19T07:25:05;-0.80;99.90
20141;DHT22;10231;47.702;9.826;2023-01-19T07:27:31;-0.80;99.90
20141;DHT22;10231;47.702;9.826;2023-01-19T07:29:57;-0.90;99.90
20141;DHT22;10231;47.702;9.826;2023-01-19T07:32:22;-0.90;99.90
20141;DHT22;10231;47.702;9.826;2023-01-19T07:34:48;-1.00;99.90
20141;DHT22;10231;47.702;9.826;2023-01-19T07:37:13;-1.10;99.90
20141;DHT22;10231;47.702;9.826;2023-01-19T07:39:39;-1.10;99.90
20141;DHT22;10231;47.702;9.826;2023-01-19T07:42:06;-1.10;99.90
20141;DHT22;10231;47.702;9.826;2023-01-19T07:44:31;-1.20;99.90
20141;DHT22;10231;47.702;9.826;2023-01-19T07:46:57;-1.10;99.90
20141;DHT22;10231;47.702;9.826;2023-01-19T07:49:23;-1.00;99.90
20141;DHT22;10231;47.702;9.826;2023-01-19T07:51:49;-1.10;99.90
20141;DHT22;10231;47.702;9.826;2023-01-19T07:54:14;-1.00;99.90
20141;DHT22;10231;47.702;9.826;2023-01-19T07:56:40;-1.20;99.90
20141;DHT22;10231;47.702;9.826;2023-01-19T07:59:05;-1.30;99.90
20141;DHT22;10231;47.702;9.826;2023-01-19T08:01:34;-1.20;99.90
20141;DHT22;10231;47.702;9.826;2023-01-19T08:03:59;-1.20;99.90
20141;DHT22;10231;47.702;9.826;2023-01-19T08:06:35;-1.10;99.90
20141;DHT22;10231;47.702;9.826;2023-01-19T08:09:02;-1.10;99.90
20141;DHT22;10231;47.702;9.826;2023-01-19T08:11:31;-1.10;99.90
20141;DHT22;10231;47.702;9.826;2023-01-19T08:13:57;-1.10;99.90
20141;DHT22;10231;47.702;9.826;2023-01-19T08:16:22;-1.00;99.90
20141;DHT22;10231;47.702;9.826;2023-01-19T08:18:48;-1.10;99.90
20141;DHT22;10231;47.702;9.826;2023-01-19T08:21:14;-1.10;99.90
20141;DHT22;10231;47.702;9.826;2023-01-19T08:23:40;-1.10;99.90
20141;DHT22;10231;47.702;9.826;2023-01-19T08:26:26;-1.00;99.90
20141;DHT22;10231;47.702;9.826;2023-01-19T08:28:57;-1.00;99.90
20141;DHT22;10231;47.702;9.826;2023-01-19T08:31:23;-0.90;99.90
20141;DHT22;10231;47.702;9.826;2023-01-19T08:33:49;-0.90;99.90
20141;DHT22;10231;47.702;9.826;2023-01-19T08:36:15;-0.90;99.90
20141;DHT22;10231;47.702;9.826;2023-01-19T08:38:42;-0.90;99.90
20141;DHT22;10231;47.702;9.826;2023-01-19T08:41:09;-0.90;99.90
20141;DHT22;10231;47.702;9.826;2023-01-19T08:43:35;-0.90;99.90
20141;DHT22;10231;47.702;9.826;2023-01-19T08:46:02;-0.80;99.90
20141;DHT22;10231;47.702;9.826;2023-01-19T08:48:28;-0.80;99.90
20141;DHT22;10231;47.702;9.826;2023-01-19T08:50:53;-0.80;99.90
20141;DHT22;10231;47.702;9.826;2023-01-19T08:53:19;-0.80;99.90
20141;DHT22;10231;47.702;9.826;2023-01-19T08:55:47;-0.80;99.90
20141;DHT22;10231;47.702;9.826;2023-01-19T08:58:12;-0.80;99.90
20141;DHT22;10231;47.702;9.826;2023-01-19T09:00:38;-0.70;99.90
20141;DHT22;10231;47.702;9.826;2023-01-19T09:03:05;-0.60;99.90
20141;DHT22;10231;47.702;9.826;2023-01-19T09:05:33;-0.50;99.90
20141;DHT22;10231;47.702;9.826;2023-01-19T09:08:05;-0.40;99.90
20141;DHT22;10231;47.702;9.826;2023-01-19T09:10:32;-0.40;99.90
20141;DHT22;10231;47.702;9.826;2023-01-19T09:13:01;-0.30;99.90
20141;DHT22;10231;47.702;9.826;2023-01-19T09:15:29;-0.30;99.90
20141;DHT22;10231;47.702;9.826;2023-01-19T09:17:54;-0.40;99.90
20141;DHT22;10231;47.702;9.826;2023-01-19T09:20:20;-0.40;99.90
20141;DHT22;10231;47.702;9.826;2023-01-19T09:22:46;-0.40;99.90
20141;DHT22;10231;47.702;9.826;2023-01-19T09:25:12;-0.20;99.90
20141;DHT22;10231;47.702;9.826;2023-01-19T09:27:37;-0.10;99.90
20141;DHT22;10231;47.702;9.826;2023-01-19T09:30:04;-0.10;99.90
20141;DHT22;10231;47.702;9.826;2023-01-19T09:32:30;-0.20;99.90
20141;DHT22;10231;47.702;9.826;2023-01-19T09:34:56;-0.20;99.90
20141;DHT22;10231;47.702;9.826;2023-01-19T09:37:21;-0.20;99.90
20141;DHT22;10231;47.702;9.826;2023-01-19T09:39:47;-0.20;99.90
20141;DHT22;10231;47.702;9.826;2023-01-19T09:42:21;-0.10;99.90
20141;DHT22;10231;47.702;9.826;2023-01-19T09:44:49;-0.20;99.90
20141;DHT22;10231;47.702;9.826;2023-01-19T09:47:20;-0.10;99.90
20141;DHT22;10231;47.702;9.826;2023-01-19T09:49:55;0.00;99.90
20141;DHT22;10231;47.702;9.826;2023-01-19T09:52:23;-0.10;99.90
20141;DHT22;10231;47.702;9.826;2023-01-19T09:54:53;-0.20;99.90
20141;DHT22;10231;47.702;9.826;2023-01-19T09:57:20;-0.20;99.90
20141;DHT22;10231;47.702;9.826;2023-01-19T09:59:46;-0.20;99.90
20141;DHT22;10231;47.702;9.826;2023-01-19T10:02:35;-0.10;99.90
20141;DHT22;10231;47.702;9.826;2023-01-19T10:10:29;-0.10;99.90
20141;DHT22;10231;47.702;9.826;2023-01-19T10:13:16;0.00;99.90
20141;DHT22;10231;47.702;9.826;2023-01-19T10:15:55;0.00;99.90
20141;DHT22;10231;47.702;9.826;2023-01-19T10:18:24;0.10;99.90
20141;DHT22;10231;47.702;9.826;2023-01-19T10:21:16;0.10;99.90
20141;DHT22;10231;47.702;9.826;2023-01-19T10:26:35;0.10;99.90
20141;DHT22;10231;47.702;9.826;2023-01-19T10:32:06;0.10;99.90
20141;DHT22;10231;47.702;9.826;2023-01-19T10:34:32;0.10;99.90
20141;DHT22;10231;47.702;9.826;2023-01-19T10:37:04;0.10;99.90
20141;DHT22;10231;47.702;9.826;2023-01-19T10:39:29;0.20;99.90
20141;DHT22;10231;47.702;9.826;2023-01-19T10:41:57;0.30;99.90
20141;DHT22;10231;47.702;9.826;2023-01-19T10:44:26;0.50;99.90
20141;DHT22;10231;47.702;9.826;2023-01-19T10:46:55;0.40;99.90
20141;DHT22;10231;47.702;9.826;2023-01-19T10:49:34;0.40;99.90
20141;DHT22;10231;47.702;9.826;2023-01-19T10:52:01;0.30;99.90
20141;DHT22;10231;47.702;9.826;2023-01-19T10:54:29;0.30;99.90
20141;DHT22;10231;47.702;9.826;2023-01-19T10:57:03;0.30;99.90
20141;DHT22;10231;47.702;9.826;2023-01-19T11:02:24;0.20;99.90
20141;DHT22;10231;47.702;9.826;2023-01-19T11:04:57;0.20;99.90
20141;DHT22;10231;47.702;9.826;2023-01-19T11:07:31;0.20;99.90
20141;DHT22;10231;47.702;9.826;2023-01-19T11:13:11;0.20;99.90
20141;DHT22;10231;47.702;9.826;2023-01-19T11:15:43;0.20;99.90
20141;DHT22;10231;47.702;9.826;2023-01-19T11:18:23;0.30;99.90
20141;DHT22;10231;47.702;9.826;2023-01-19T11:20:53;0.30;99.90
20141;DHT22;10231;47.702;9.826;2023-01-19T11:23:31;0.30;99.90
20141;DHT22;10231;47.702;9.826;2023-01-19T11:25:59;0.30;99.90
20141;DHT22;10231;47.702;9.826;2023-01-19T11:28:36;0.30;99.90
20141;DHT22;10231;47.702;9.826;2023-01-19T11:33:53;0.20;99.90
20141;DHT22;10231;47.702;9.826;2023-01-19T11:36:31;0.20;99.90
20141;DHT22;10231;47.702;9.826;2023-01-19T11:38:59;0.20;99.90
20141;DHT22;10231;47.702;9.826;2023-01-19T11:41:29;0.30;99.90
20141;DHT22;10231;47.702;9.826;2023-01-19T11:44:04;0.30;99.90
20141;DHT22;10231;47.702;9.826;2023-01-19T11:46:37;0.40;99.90
20141;DHT22;10231;47.702;9.826;2023-01-19T11:49:07;0.40;99.90
20141;DHT22;10231;47.702;9.826;2023-01-19T11:52:05;0.50;99.90
20141;DHT22;10231;47.702;9.826;2023-01-19T11:54:37;0.60;99.90
20141;DHT22;10231;47.702;9.826;2023-01-19T11:57:12;0.50;99.90
20141;DHT22;10231;47.702;9.826;2023-01-19T11:59:39;0.50;99.90
20141;DHT22;10231;47.702;9.826;2023-01-19T12:02:23;0.40;99.90
20141;DHT22;10231;47.702;9.826;2023-01-19T12:04:52;0.40;99.90
20141;DHT22;10231;47.702;9.826;2023-01-19T12:07:24;0.40;99.90
20141;DHT22;10231;47.702;9.826;2023-01-19T12:09:54;0.30;99.90
20141;DHT22;10231;47.702;9.826;2023-01-19T12:12:31;0.30;99.90
20141;DHT22;10231;47.702;9.826;2023-01-19T12:15:06;0.40;99.90
20141;DHT22;10231;47.702;9.826;2023-01-19T12:17:44;0.40;99.90
20141;DHT22;10231;47.702;9.826;2023-01-19T12:20:37;0.50;99.90
20141;DHT22;10231;47.702;9.826;2023-01-19T12:28:50;0.50;99.90
20141;DHT22;10231;47.702;9.826;2023-01-19T12:31:18;0.60;99.90
20141;DHT22;10231;47.702;9.826;2023-01-19T12:33:45;0.60;99.90
20141;DHT22;10231;47.702;9.826;2023-01-19T12:39:02;0.60;99.90
20141;DHT22;10231;47.702;9.826;2023-01-19T12:41:38;0.60;99.90
20141;DHT22;10231;47.702;9.826;2023-01-19T12:46:42;0.70;99.90
20141;DHT22;10231;47.702;9.826;2023-01-19T12:52:09;0.50;99.90
20141;DHT22;10231;47.702;9.826;2023-01-19T12:54:37;0.50;99.90
20141;DHT22;10231;47.702;9.826;2023-01-19T12:57:15;0.50;99.90
20141;DHT22;10231;47.702;9.826;2023-01-19T12:59:42;0.60;99.90
20141;DHT22;10231;47.702;9.826;2023-01-19T13:13:36;0.60;99.90
20141;DHT22;10231;47.702;9.826;2023-01-19T13:18:49;0.60;99.90
20141;DHT22;10231;47.702;9.826;2023-01-19T13:23:53;0.70;99.90
20141;DHT22;10231;47.702;9.826;2023-01-19T13:26:21;0.70;99.90
20141;DHT22;10231;47.702;9.826;2023-01-19T13:28:53;0.80;99.90
20141;DHT22;10231;47.702;9.826;2023-01-19T13:31:19;0.90;99.90
20141;DHT22;10231;47.702;9.826;2023-01-19T13:33:52;0.80;99.90
20141;DHT22;10231;47.702;9.826;2023-01-19T13:36:27;0.80;99.90
20141;DHT22;10231;47.702;9.826;2023-01-19T13:38:55;0.80;99.90
20141;DHT22;10231;47.702;9.826;2023-01-19T13:41:24;0.70;99.90
20141;DHT22;10231;47.702;9.826;2023-01-19T13:44:18;0.80;99.90
20141;DHT22;10231;47.702;9.826;2023-01-19T13:46:41;0.80;99.90
20141;DHT22;10231;47.702;9.826;2023-01-19T13:49:18;0.80;99.90
20141;DHT22;10231;47.702;9.826;2023-01-19T13:51:45;0.90;99.90
20141;DHT22;10231;47.702;9.826;2023-01-19T13:54:15;0.90;99.90
20141;DHT22;10231;47.702;9.826;2023-01-19T13:56:46;1.00;99.90
20141;DHT22;10231;47.702;9.826;2023-01-19T13:59:14;1.00;99.90
20141;DHT22;10231;47.702;9.826;2023-01-19T14:01:42;1.00;99.90
20141;DHT22;10231;47.702;9.826;2023-01-19T14:06:52;1.10;99.90
20141;DHT22;10231;47.702;9.826;2023-01-19T14:09:20;1.00;99.90
20141;DHT22;10231;47.702;9.826;2023-01-19T14:12:12;1.10;99.90
20141;DHT22;10231;47.702;9.826;2023-01-19T14:14:39;1.30;99.90
20141;DHT22;10231;47.702;9.826;2023-01-19T14:17:28;1.50;99.90
20141;DHT22;10231;47.702;9.826;2023-01-19T14:19:56;1.60;99.90
20141;DHT22;10231;47.702;9.826;2023-01-19T14:22:39;1.70;99.90
20141;DHT22;10231;47.702;9.826;2023-01-19T14:28:28;1.70;99.90
20141;DHT22;10231;47.702;9.826;2023-01-19T14:31:01;1.60;99.90
20141;DHT22;10231;47.702;9.826;2023-01-19T14:33:42;1.60;99.90
20141;DHT22;10231;47.702;9.826;2023-01-19T14:38:43;1.50;99.90
20141;DHT22;10231;47.702;9.826;2023-01-19T14:41:09;1.50;99.90
20141;DHT22;10231;47.702;9.826;2023-01-19T14:43:35;1.30;99.90
20141;DHT22;10231;47.702;9.826;2023-01-19T14:46:01;1.20;99.90
20141;DHT22;10231;47.702;9.826;2023-01-19T14:48:26;1.20;99.90
20141;DHT22;10231;47.702;9.826;2023-01-19T14:51:00;1.10;99.90
20141;DHT22;10231;47.702;9.826;2023-01-19T14:53:26;1.00;99.90
20141;DHT22;10231;47.702;9.826;2023-01-19T14:55:54;1.10;99.90
20141;DHT22;10231;47.702;9.826;2023-01-19T14:58:24;1.10;99.90
20141;DHT22;10231;47.702;9.826;2023-01-19T15:00:50;1.00;99.90
20141;DHT22;10231;47.702;9.826;2023-01-19T15:03:20;1.00;99.90
20141;DHT22;10231;47.702;9.826;2023-01-19T15:05:46;1.00;99.90
20141;DHT22;10231;47.702;9.826;2023-01-19T15:08:32;1.00;99.90
20141;DHT22;10231;47.702;9.826;2023-01-19T15:11:05;1.10;99.90
20141;DHT22;10231;47.702;9.826;2023-01-19T15:13:33;1.20;99.90
20141;DHT22;10231;47.702;9.826;2023-01-19T15:15:59;1.20;99.90
20141;DHT22;10231;47.702;9.826;2023-01-19T15:18:25;1.10;99.90
20141;DHT22;10231;47.702;9.826;2023-01-19T15:20:52;1.10;99.90
20141;DHT22;10231;47.702;9.826;2023-01-19T15:23:19;1.10;99.90
20141;DHT22;10231;47.702;9.826;2023-01-19T15:25:45;1.00;99.90
20141;DHT22;10231;47.702;9.826;2023-01-19T15:28:15;1.00;99.90
20141;DHT22;10231;47.702;9.826;2023-01-19T15:30:42;1.00;99.90
20141;DHT22;10231;47.702;9.826;2023-01-19T15:33:19;1.00;99.90
20141;DHT22;10231;47.702;9.826;2023-01-19T15:35:45;0.90;99.90
20141;DHT22;10231;47.702;9.826;2023-01-19T15:38:11;0.90;99.90
20141;DHT22;10231;47.702;9.826;2023-01-19T15:40:36;0.90;99.90
20141;DHT22;10231;47.702;9.826;2023-01-19T15:43:02;0.90;99.90
20141;DHT22;10231;47.702;9.826;2023-01-19T15:47:56;0.80;99.90
20141;DHT22;10231;47.702;9.826;2023-01-19T15:50:24;0.80;99.90
20141;DHT22;10231;47.702;9.826;2023-01-19T15:52:49;0.80;99.90
20141;DHT22;10231;47.702;9.826;2023-01-19T15:55:15;0.80;99.90
20141;DHT22;10231;47.702;9.826;2023-01-19T15:57:41;0.70;99.90
20141;DHT22;10231;47.702;9.826;2023-01-19T16:00:07;0.60;99.90
20141;DHT22;10231;47.702;9.826;2023-01-19T16:02:35;0.60;99.90
20141;DHT22;10231;47.702;9.826;2023-01-19T16:05:00;0.50;99.90
20141;DHT22;10231;47.702;9.826;2023-01-19T16:07:26;0.40;99.90
20141;DHT22;10231;47.702;9.826;2023-01-19T16:09:51;0.40;99.90
20141;DHT22;10231;47.702;9.826;2023-01-19T16:12:17;0.40;99.90
20141;DHT22;10231;47.702;9.826;2023-01-19T16:14:42;0.40;99.90
20141;DHT22;10231;47.702;9.826;2023-01-19T16:17:08;0.40;99.90
20141;DHT22;10231;47.702;9.826;2023-01-19T16:19:33;0.40;99.90
20141;DHT22;10231;47.702;9.826;2023-01-19T16:21:59;0.40;99.90
20141;DHT22;10231;47.702;9.826;2023-01-19T16:24:24;0.30;99.90
20141;DHT22;10231;47.702;9.826;2023-01-19T16:26:50;0.20;99.90
20141;DHT22;10231;47.702;9.826;2023-01-19T16:29:16;0.20;99.90
20141;DHT22;10231;47.702;9.826;2023-01-19T16:31:42;0.20;99.90
20141;DHT22;10231;47.702;9.826;2023-01-19T16:34:08;0.20;99.90
20141;DHT22;10231;47.702;9.826;2023-01-19T16:36:36;0.20;99.90
20141;DHT22;10231;47.702;9.826;2023-01-19T16:39:05;0.20;99.90
20141;DHT22;10231;47.702;9.826;2023-01-19T16:41:34;0.10;99.90
20141;DHT22;10231;47.702;9.826;2023-01-19T16:44:01;0.20;99.90
20141;DHT22;10231;47.702;9.826;2023-01-19T16:46:29;0.10;99.90
20141;DHT22;10231;47.702;9.826;2023-01-19T16:48:59;0.10;99.90
20141;DHT22;10231;47.702;9.826;2023-01-19T16:51:25;0.10;99.90
20141;DHT22;10231;47.702;9.826;2023-01-19T16:53:51;0.10;99.90
20141;DHT22;10231;47.702;9.826;2023-01-19T16:56:16;0.10;99.90
20141;DHT22;10231;47.702;9.826;2023-01-19T16:58:42;0.10;99.90
20141;DHT22;10231;47.702;9.826;2023-01-19T17:01:09;0.00;99.90